sensor_id;sensor_type;location;lat;lon;timestamp;P1;durP1;ratioP1;P2;durP2;ratioP2
20095;SDS011;10207;50.942;6.900;2023-02-01T00:01:18;17.05;;;6.22;;
20095;SDS011;10207;50.942;6.900;2023-02-01T00:03:44;18.33;;;6.10;;
20095;SDS011;10207;50.942;6.900;2023-02-01T00:06:10;17.17;;;5.97;;
20095;SDS011;10207;50.942;6.900;2023-02-01T00:08:36;16.95;;;5.97;;
20095;SDS011;10207;50.942;6.900;2023-02-01T00:11:06;17.63;;;6.68;;
20095;SDS011;10207;50.942;6.900;2023-02-01T00:13:33;19.55;;;6.85;;
20095;SDS011;10207;50.942;6.900;2023-02-01T00:16:06;22.25;;;7.00;;
20095;SDS011;10207;50.942;6.900;2023-02-01T00:18:32;18.10;;;6.85;;
20095;SDS011;10207;50.942;6.900;2023-02-01T00:20:58;21.73;;;7.70;;
20095;SDS011;10207;50.942;6.900;2023-02-01T00:23:24;14.77;;;5.57;;
20095;SDS011;10207;50.942;6.900;2023-02-01T00:25:50;15.48;;;6.38;;
20095;SDS011;10207;50.942;6.900;2023-02-01T00:28:16;19.67;;;7.63;;
20095;SDS011;10207;50.942;6.900;2023-02-01T00:30:42;18.05;;;6.38;;
20095;SDS011;10207;50.942;6.900;2023-02-01T00:33:08;19.92;;;6.10;;
20095;SDS011;10207;50.942;6.900;2023-02-01T00:35:34;20.73;;;6.05;;
20095;SDS011;10207;50.942;6.900;2023-02-01T00:38:00;14.57;;;4.38;;
20095;SDS011;10207;50.942;6.900;2023-02-01T00:40:26;15.52;;;4.72;;
20095;SDS011;10207;50.942;6.900;2023-02-01T00:42:52;12.95;;;4.38;;
20095;SDS011;10207;50.942;6.900;2023-02-01T00:45:19;12.55;;;4.28;;
20095;SDS011;10207;50.942;6.900;2023-02-01T00:47:45;12.15;;;4.60;;
20095;SDS011;10207;50.942;6.900;2023-02-01T00:50:10;10.50;;;3.57;;
20095;SDS011;10207;50.942;6.900;2023-02-01T00:52:37;11.80;;;3.85;;
20095;SDS011;10207;50.942;6.900;2023-02-01T00:55:02;16.17;;;4.20;;
20095;SDS011;10207;50.942;6.900;2023-02-01T00:57:29;13.73;;;3.85;;
20095;SDS011;10207;50.942;6.900;2023-02-01T00:59:55;17.13;;;3.75;;
20095;SDS011;10207;50.942;6.900;2023-02-01T01:02:20;11.10;;;3.45;;
20095;SDS011;10207;50.942;6.900;2023-02-01T01:04:46;11.77;;;3.33;;
20095;SDS011;10207;50.942;6.900;2023-02-01T01:07:12;14.43;;;3.45;;
20095;SDS011;10207;50.942;6.900;2023-02-01T01:09:38;17.17;;;4.80;;
20095;SDS011;10207;50.942;6.900;2023-02-01T01:12:04;11.77;;;3.47;;
20095;SDS011;10207;50.942;6.900;2023-02-01T01:14:31;10.15;;;2.95;;
20095;SDS011;10207;50.942;6.900;2023-02-01T01:16:57;14.25;;;3.85;;
20095;SDS011;10207;50.942;6.900;2023-02-01T01:19:23;14.07;;;3.20;;
20095;SDS011;10207;50.942;6.900;2023-02-01T01:21:49;13.73;;;2.53;;
20095;SDS011;10207;50.942;6.900;2023-02-01T01:24:15;13.13;;;3.08;;
20095;SDS011;10207;50.942;6.900;2023-02-01T01:26:41;10.63;;;2.92;;
20095;SDS011;10207;50.942;6.900;2023-02-01T01:29:08;13.32;;;3.15;;
20095;SDS011;10207;50.942;6.900;2023-02-01T01:31:34;11.85;;;3.45;;
20095;SDS011;10207;50.942;6.900;2023-02-01T01:34:00;13.68;;;2.80;;
20095;SDS011;10207;50.942;6.900;2023-02-01T01:36:27;19.60;;;3.05;;
20095;SDS011;10207;50.942;6.900;2023-02-01T01:38:54;24.58;;;3.95;;
20095;SDS011;10207;50.942;6.900;2023-02-01T01:41:24;11.43;;;2.90;;
20095;SDS011;10207;50.942;6.900;2023-02-01T01:43:56;9.73;;;2.70;;
20095;SDS011;10207;50.942;6.900;2023-02-01T01:46:25;20.08;;;4.20;;
20095;SDS011;10207;50.942;6.900;2023-02-01T01:49:02;14.05;;;2.88;;
20095;SDS011;10207;50.942;6.900;2023-02-01T01:51:29;8.45;;;2.67;;
20095;SDS011;10207;50.942;6.900;2023-02-01T01:53:59;15.30;;;3.63;;
20095;SDS011;10207;50.942;6.900;2023-02-01T01:56:26;12.27;;;2.88;;
20095;SDS011;10207;50.942;6.900;2023-02-01T01:58:53;13.02;;;3.05;;
20095;SDS011;10207;50.942;6.900;2023-02-01T02:01:19;12.52;;;2.72;;
20095;SDS011;10207;50.942;6.900;2023-02-01T02:03:45;18.33;;;2.47;;
20095;SDS011;10207;50.942;6.900;2023-02-01T02:06:25;17.15;;;3.08;;
20095;SDS011;10207;50.942;6.900;2023-02-01T02:08:53;8.25;;;2.25;;
20095;SDS011;10207;50.942;6.900;2023-02-01T02:11:19;12.23;;;2.63;;
20095;SDS011;10207;50.942;6.900;2023-02-01T02:13:46;16.00;;;3.22;;
20095;SDS011;10207;50.942;6.900;2023-02-01T02:16:36;15.90;;;3.08;;
20095;SDS011;10207;50.942;6.900;2023-02-01T02:21:36;10.07;;;3.85;;
20095;SDS011;10207;50.942;6.900;2023-02-01T02:27:10;13.82;;;4.47;;
20095;SDS011;10207;50.942;6.900;2023-02-01T02:35:06;16.27;;;3.75;;
20095;SDS011;10207;50.942;6.900;2023-02-01T02:37:41;13.77;;;3.78;;
20095;SDS011;10207;50.942;6.900;2023-02-01T02:40:22;12.20;;;3.97;;
20095;SDS011;10207;50.942;6.900;2023-02-01T02:42:52;20.67;;;3.85;;
20095;SDS011;10207;50.942;6.900;2023-02-01T02:45:51;13.07;;;3.60;;
20095;SDS011;10207;50.942;6.900;2023-02-01T02:48:41;13.60;;;3.97;;
20095;SDS011;10207;50.942;6.900;2023-02-01T02:51:14;12.88;;;4.85;;
20095;SDS011;10207;50.942;6.900;2023-02-01T02:54:12;11.05;;;3.75;;
20095;SDS011;10207;50.942;6.900;2023-02-01T02:56:58;14.00;;;5.10;;
20095;SDS011;10207;50.942;6.900;2023-02-01T02:59:44;16.35;;;4.22;;
20095;SDS011;10207;50.942;6.900;2023-02-01T03:02:31;15.25;;;3.80;;
20095;SDS011;10207;50.942;6.900;2023-02-01T03:05:17;14.35;;;4.25;;
20095;SDS011;10207;50.942;6.900;2023-02-01T03:07:49;15.35;;;4.13;;
20095;SDS011;10207;50.942;6.900;2023-02-01T03:10:23;16.40;;;3.33;;
20095;SDS011;10207;50.942;6.900;2023-02-01T03:12:50;13.82;;;3.95;;
20095;SDS011;10207;50.942;6.900;2023-02-01T03:15:42;11.80;;;3.53;;
20095;SDS011;10207;50.942;6.900;2023-02-01T03:18:19;16.15;;;5.13;;
20095;SDS011;10207;50.942;6.900;2023-02-01T03:20:49;17.48;;;4.38;;
20095;SDS011;10207;50.942;6.900;2023-02-01T03:23:18;17.38;;;4.60;;
20095;SDS011;10207;50.942;6.900;2023-02-01T03:25:46;14.10;;;4.68;;
20095;SDS011;10207;50.942;6.900;2023-02-01T03:28:13;12.23;;;4.25;;
20095;SDS011;10207;50.942;6.900;2023-02-01T03:30:42;11.25;;;3.78;;
20095;SDS011;10207;50.942;6.900;2023-02-01T03:33:09;22.02;;;3.92;;
20095;SDS011;10207;50.942;6.900;2023-02-01T03:35:42;16.67;;;4.70;;
20095;SDS011;10207;50.942;6.900;2023-02-01T03:38:19;16.50;;;4.35;;
20095;SDS011;10207;50.942;6.900;2023-02-01T03:40:50;13.25;;;3.85;;
20095;SDS011;10207;50.942;6.900;2023-02-01T03:43:17;12.43;;;3.65;;
20095;SDS011;10207;50.942;6.900;2023-02-01T03:45:45;11.35;;;3.22;;
20095;SDS011;10207;50.942;6.900;2023-02-01T03:48:13;13.75;;;4.18;;
20095;SDS011;10207;50.942;6.900;2023-02-01T03:50:43;14.65;;;3.40;;
20095;SDS011;10207;50.942;6.900;2023-02-01T03:53:11;15.77;;;4.07;;
20095;SDS011;10207;50.942;6.900;2023-02-01T03:55:42;12.75;;;3.42;;
20095;SDS011;10207;50.942;6.900;2023-02-01T03:58:18;19.73;;;4.43;;
20095;SDS011;10207;50.942;6.900;2023-02-01T04:00:56;16.13;;;3.58;;
20095;SDS011;10207;50.942;6.900;2023-02-01T04:03:22;14.55;;;3.90;;
20095;SDS011;10207;50.942;6.900;2023-02-01T04:05:49;18.25;;;4.05;;
20095;SDS011;10207;50.942;6.900;2023-02-01T04:08:15;14.52;;;4.35;;
20095;SDS011;10207;50.942;6.900;2023-02-01T04:10:41;23.65;;;4.15;;
20095;SDS011;10207;50.942;6.900;2023-02-01T04:13:08;10.20;;;3.80;;
20095;SDS011;10207;50.942;6.900;2023-02-01T04:15:34;18.10;;;3.90;;
20095;SDS011;10207;50.942;6.900;2023-02-01T04:18:00;14.23;;;3.70;;
20095;SDS011;10207;50.942;6.900;2023-02-01T04:20:26;14.50;;;4.18;;
20095;SDS011;10207;50.942;6.900;2023-02-01T04:22:53;16.10;;;5.32;;
20095;SDS011;10207;50.942;6.900;2023-02-01T04:25:19;23.67;;;4.30;;
20095;SDS011;10207;50.942;6.900;2023-02-01T04:27:46;12.60;;;3.33;;
20095;SDS011;10207;50.942;6.900;2023-02-01T04:30:12;17.50;;;3.92;;
20095;SDS011;10207;50.942;6.900;2023-02-01T04:32:38;16.02;;;4.00;;
20095;SDS011;10207;50.942;6.900;2023-02-01T04:35:04;19.63;;;3.47;;
20095;SDS011;10207;50.942;6.900;2023-02-01T04:37:30;9.27;;;1.98;;
20095;SDS011;10207;50.942;6.900;2023-02-01T04:39:56;16.70;;;3.83;;
20095;SDS011;10207;50.942;6.900;2023-02-01T04:42:22;12.10;;;3.65;;
20095;SDS011;10207;50.942;6.900;2023-02-01T04:44:48;14.80;;;3.15;;
20095;SDS011;10207;50.942;6.900;2023-02-01T04:47:14;13.45;;;3.55;;
20095;SDS011;10207;50.942;6.900;2023-02-01T04:49:41;16.58;;;3.63;;
20095;SDS011;10207;50.942;6.900;2023-02-01T04:52:07;16.33;;;3.70;;
20095;SDS011;10207;50.942;6.900;2023-02-01T04:54:33;18.13;;;3.28;;
20095;SDS011;10207;50.942;6.900;2023-02-01T04:56:59;17.25;;;3.53;;
20095;SDS011;10207;50.942;6.900;2023-02-01T04:59:25;15.77;;;4.53;;
20095;SDS011;10207;50.942;6.900;2023-02-01T05:01:51;14.65;;;3.17;;
20095;SDS011;10207;50.942;6.900;2023-02-01T05:04:17;16.35;;;3.67;;
20095;SDS011;10207;50.942;6.900;2023-02-01T05:06:44;18.70;;;4.40;;
20095;SDS011;10207;50.942;6.900;2023-02-01T05:09:10;11.77;;;3.30;;
20095;SDS011;10207;50.942;6.900;2023-02-01T05:11:36;13.70;;;3.53;;
20095;SDS011;10207;50.942;6.900;2023-02-01T05:14:20;22.45;;;3.63;;
20095;SDS011;10207;50.942;6.900;2023-02-01T05:16:46;18.40;;;3.53;;
20095;SDS011;10207;50.942;6.900;2023-02-01T05:19:12;16.73;;;3.92;;
20095;SDS011;10207;50.942;6.900;2023-02-01T05:21:38;16.05;;;2.75;;
20095;SDS011;10207;50.942;6.900;2023-02-01T05:24:04;16.25;;;3.10;;
20095;SDS011;10207;50.942;6.900;2023-02-01T05:26:41;17.25;;;4.63;;
20095;SDS011;10207;50.942;6.900;2023-02-01T05:29:07;15.05;;;2.97;;
20095;SDS011;10207;50.942;6.900;2023-02-01T05:31:34;14.80;;;3.15;;
20095;SDS011;10207;50.942;6.900;2023-02-01T05:34:00;13.80;;;3.28;;
20095;SDS011;10207;50.942;6.900;2023-02-01T05:36:26;17.90;;;3.33;;
20095;SDS011;10207;50.942;6.900;2023-02-01T05:38:52;18.65;;;2.47;;
20095;SDS011;10207;50.942;6.900;2023-02-01T05:41:18;12.93;;;3.10;;
20095;SDS011;10207;50.942;6.900;2023-02-01T05:43:43;14.95;;;3.58;;
20095;SDS011;10207;50.942;6.900;2023-02-01T05:46:10;15.52;;;2.75;;
20095;SDS011;10207;50.942;6.900;2023-02-01T05:48:38;18.37;;;2.60;;
20095;SDS011;10207;50.942;6.900;2023-02-01T05:51:04;11.20;;;2.30;;
20095;SDS011;10207;50.942;6.900;2023-02-01T05:53:30;13.70;;;3.13;;
20095;SDS011;10207;50.942;6.900;2023-02-01T05:55:56;16.67;;;3.07;;
20095;SDS011;10207;50.942;6.900;2023-02-01T05:58:22;18.13;;;3.67;;
20095;SDS011;10207;50.942;6.900;2023-02-01T06:00:48;15.52;;;2.55;;
20095;SDS011;10207;50.942;6.900;2023-02-01T06:03:14;11.47;;;2.70;;
20095;SDS011;10207;50.942;6.900;2023-02-01T06:05:40;21.90;;;3.17;;
20095;SDS011;10207;50.942;6.900;2023-02-01T06:08:06;12.93;;;3.35;;
20095;SDS011;10207;50.942;6.900;2023-02-01T06:10:33;15.97;;;3.07;;
20095;SDS011;10207;50.942;6.900;2023-02-01T06:12:59;22.10;;;3.23;;
20095;SDS011;10207;50.942;6.900;2023-02-01T06:15:25;19.77;;;3.53;;
20095;SDS011;10207;50.942;6.900;2023-02-01T06:17:51;14.23;;;2.43;;
20095;SDS011;10207;50.942;6.900;2023-02-01T06:20:17;18.77;;;3.23;;
20095;SDS011;10207;50.942;6.900;2023-02-01T06:22:43;18.37;;;3.17;;
20095;SDS011;10207;50.942;6.900;2023-02-01T06:25:09;16.93;;;3.57;;
20095;SDS011;10207;50.942;6.900;2023-02-01T06:27:36;20.97;;;3.17;;
20095;SDS011;10207;50.942;6.900;2023-02-01T06:30:02;17.43;;;3.20;;
20095;SDS011;10207;50.942;6.900;2023-02-01T06:32:29;14.63;;;3.97;;
20095;SDS011;10207;50.942;6.900;2023-02-01T06:34:55;18.10;;;3.23;;
20095;SDS011;10207;50.942;6.900;2023-02-01T06:37:22;12.57;;;3.27;;
20095;SDS011;10207;50.942;6.900;2023-02-01T06:39:48;18.87;;;2.97;;
20095;SDS011;10207;50.942;6.900;2023-02-01T06:42:14;11.68;;;3.70;;
20095;SDS011;10207;50.942;6.900;2023-02-01T06:44:40;15.50;;;3.70;;
20095;SDS011;10207;50.942;6.900;2023-02-01T06:47:06;14.30;;;3.35;;
20095;SDS011;10207;50.942;6.900;2023-02-01T06:49:32;14.25;;;2.67;;
20095;SDS011;10207;50.942;6.900;2023-02-01T06:51:58;15.60;;;3.40;;
20095;SDS011;10207;50.942;6.900;2023-02-01T06:54:26;20.70;;;3.30;;
20095;SDS011;10207;50.942;6.900;2023-02-01T06:56:52;14.18;;;3.08;;
20095;SDS011;10207;50.942;6.900;2023-02-01T06:59:18;16.00;;;3.22;;
20095;SDS011;10207;50.942;6.900;2023-02-01T07:01:44;14.25;;;3.10;;
20095;SDS011;10207;50.942;6.900;2023-02-01T07:04:13;13.70;;;4.00;;
20095;SDS011;10207;50.942;6.900;2023-02-01T07:06:39;11.23;;;2.88;;
20095;SDS011;10207;50.942;6.900;2023-02-01T07:09:05;15.10;;;3.77;;
20095;SDS011;10207;50.942;6.900;2023-02-01T07:11:31;14.87;;;3.10;;
20095;SDS011;10207;50.942;6.900;2023-02-01T07:13:57;13.68;;;3.22;;
20095;SDS011;10207;50.942;6.900;2023-02-01T07:16:23;11.87;;;2.93;;
20095;SDS011;10207;50.942;6.900;2023-02-01T07:18:50;17.25;;;4.93;;
20095;SDS011;10207;50.942;6.900;2023-02-01T07:21:16;15.25;;;3.60;;
20095;SDS011;10207;50.942;6.900;2023-02-01T07:23:42;17.67;;;4.60;;
20095;SDS011;10207;50.942;6.900;2023-02-01T07:26:10;22.55;;;3.67;;
20095;SDS011;10207;50.942;6.900;2023-02-01T07:28:37;13.02;;;3.33;;
20095;SDS011;10207;50.942;6.900;2023-02-01T07:31:04;13.63;;;3.65;;
20095;SDS011;10207;50.942;6.900;2023-02-01T07:33:30;16.05;;;4.05;;
20095;SDS011;10207;50.942;6.900;2023-02-01T07:35:56;18.13;;;3.30;;
20095;SDS011;10207;50.942;6.900;2023-02-01T07:38:22;13.65;;;2.63;;
20095;SDS011;10207;50.942;6.900;2023-02-01T07:40:49;16.98;;;3.85;;
20095;SDS011;10207;50.942;6.900;2023-02-01T07:43:15;16.73;;;3.38;;
20095;SDS011;10207;50.942;6.900;2023-02-01T07:45:41;13.85;;;3.30;;
20095;SDS011;10207;50.942;6.900;2023-02-01T07:48:07;20.00;;;3.13;;
20095;SDS011;10207;50.942;6.900;2023-02-01T07:50:33;19.63;;;3.47;;
20095;SDS011;10207;50.942;6.900;2023-02-01T07:53:00;14.15;;;3.47;;
20095;SDS011;10207;50.942;6.900;2023-02-01T07:55:26;17.77;;;3.38;;
20095;SDS011;10207;50.942;6.900;2023-02-01T07:57:52;21.52;;;3.67;;
20095;SDS011;10207;50.942;6.900;2023-02-01T08:00:18;17.98;;;3.28;;
20095;SDS011;10207;50.942;6.900;2023-02-01T08:03:04;8.87;;;2.67;;
20095;SDS011;10207;50.942;6.900;2023-02-01T08:05:30;13.15;;;3.33;;
20095;SDS011;10207;50.942;6.900;2023-02-01T08:07:56;18.88;;;3.92;;
20095;SDS011;10207;50.942;6.900;2023-02-01T08:10:22;27.02;;;3.92;;
20095;SDS011;10207;50.942;6.900;2023-02-01T08:12:48;15.88;;;3.67;;
20095;SDS011;10207;50.942;6.900;2023-02-01T08:15:14;14.93;;;3.40;;
20095;SDS011;10207;50.942;6.900;2023-02-01T08:17:47;14.02;;;3.60;;
20095;SDS011;10207;50.942;6.900;2023-02-01T08:20:14;16.08;;;3.58;;
20095;SDS011;10207;50.942;6.900;2023-02-01T08:22:40;17.70;;;3.20;;
20095;SDS011;10207;50.942;6.900;2023-02-01T08:25:06;8.63;;;2.40;;
20095;SDS011;10207;50.942;6.900;2023-02-01T08:27:32;20.13;;;3.53;;
20095;SDS011;10207;50.942;6.900;2023-02-01T08:29:58;18.92;;;2.95;;
20095;SDS011;10207;50.942;6.900;2023-02-01T08:32:25;18.30;;;3.10;;
20095;SDS011;10207;50.942;6.900;2023-02-01T08:34:51;18.10;;;3.50;;
20095;SDS011;10207;50.942;6.900;2023-02-01T08:37:17;22.20;;;4.40;;
20095;SDS011;10207;50.942;6.900;2023-02-01T08:39:43;12.85;;;3.92;;
20095;SDS011;10207;50.942;6.900;2023-02-01T08:42:10;10.88;;;2.60;;
20095;SDS011;10207;50.942;6.900;2023-02-01T08:44:54;12.63;;;2.97;;
20095;SDS011;10207;50.942;6.900;2023-02-01T08:47:21;15.43;;;3.00;;
20095;SDS011;10207;50.942;6.900;2023-02-01T08:49:47;12.57;;;2.63;;
20095;SDS011;10207;50.942;6.900;2023-02-01T08:52:12;14.68;;;2.97;;
20095;SDS011;10207;50.942;6.900;2023-02-01T08:54:38;16.73;;;2.67;;
20095;SDS011;10207;50.942;6.900;2023-02-01T08:57:06;14.15;;;2.70;;
20095;SDS011;10207;50.942;6.900;2023-02-01T08:59:32;17.25;;;2.97;;
20095;SDS011;10207;50.942;6.900;2023-02-01T09:01:58;23.25;;;3.78;;
20095;SDS011;10207;50.942;6.900;2023-02-01T09:04:24;13.77;;;2.25;;
20095;SDS011;10207;50.942;6.900;2023-02-01T09:06:50;9.48;;;2.65;;
20095;SDS011;10207;50.942;6.900;2023-02-01T09:09:16;14.82;;;2.85;;
20095;SDS011;10207;50.942;6.900;2023-02-01T09:11:42;12.40;;;3.15;;
20095;SDS011;10207;50.942;6.900;2023-02-01T09:14:08;18.23;;;3.63;;
20095;SDS011;10207;50.942;6.900;2023-02-01T09:16:34;10.50;;;2.70;;
20095;SDS011;10207;50.942;6.900;2023-02-01T09:19:00;21.42;;;3.03;;
20095;SDS011;10207;50.942;6.900;2023-02-01T09:21:27;11.02;;;2.50;;
20095;SDS011;10207;50.942;6.900;2023-02-01T09:23:53;15.18;;;2.50;;
20095;SDS011;10207;50.942;6.900;2023-02-01T09:26:19;10.75;;;2.60;;
20095;SDS011;10207;50.942;6.900;2023-02-01T09:28:45;14.00;;;3.05;;
20095;SDS011;10207;50.942;6.900;2023-02-01T09:31:11;15.25;;;2.88;;
20095;SDS011;10207;50.942;6.900;2023-02-01T09:33:37;12.52;;;2.55;;
20095;SDS011;10207;50.942;6.900;2023-02-01T09:36:04;15.32;;;3.88;;
20095;SDS011;10207;50.942;6.900;2023-02-01T09:38:30;13.32;;;2.88;;
20095;SDS011;10207;50.942;6.900;2023-02-01T09:40:57;19.85;;;5.20;;
20095;SDS011;10207;50.942;6.900;2023-02-01T09:48:21;11.77;;;2.28;;
20095;SDS011;10207;50.942;6.900;2023-02-01T09:50:54;14.80;;;3.25;;
20095;SDS011;10207;50.942;6.900;2023-02-01T09:53:32;13.75;;;3.78;;
20095;SDS011;10207;50.942;6.900;2023-02-01T09:56:00;11.75;;;2.25;;
20095;SDS011;10207;50.942;6.900;2023-02-01T10:01:22;17.92;;;3.35;;
20095;SDS011;10207;50.942;6.900;2023-02-01T10:03:49;8.75;;;2.58;;
20095;SDS011;10207;50.942;6.900;2023-02-01T10:07:02;14.30;;;2.67;;
20095;SDS011;10207;50.942;6.900;2023-02-01T10:17:13;19.80;;;3.00;;
20095;SDS011;10207;50.942;6.900;2023-02-01T10:22:41;10.75;;;2.60;;
20095;SDS011;10207;50.942;6.900;2023-02-01T10:27:37;11.18;;;2.65;;
20095;SDS011;10207;50.942;6.900;2023-02-01T10:30:21;16.48;;;3.10;;
20095;SDS011;10207;50.942;6.900;2023-02-01T10:33:01;16.40;;;2.63;;
20095;SDS011;10207;50.942;6.900;2023-02-01T10:35:34;10.85;;;1.98;;
20095;SDS011;10207;50.942;6.900;2023-02-01T10:38:02;16.08;;;3.00;;
20095;SDS011;10207;50.942;6.900;2023-02-01T10:40:29;18.45;;;2.63;;
20095;SDS011;10207;50.942;6.900;2023-02-01T10:42:57;10.85;;;2.20;;
20095;SDS011;10207;50.942;6.900;2023-02-01T10:45:25;11.35;;;2.58;;
20095;SDS011;10207;50.942;6.900;2023-02-01T10:47:52;14.52;;;3.30;;
20095;SDS011;10207;50.942;6.900;2023-02-01T10:50:25;14.63;;;3.95;;
20095;SDS011;10207;50.942;6.900;2023-02-01T10:53:03;11.77;;;2.47;;
20095;SDS011;10207;50.942;6.900;2023-02-01T10:55:33;15.50;;;2.53;;
20095;SDS011;10207;50.942;6.900;2023-02-01T10:58:01;8.93;;;2.30;;
20095;SDS011;10207;50.942;6.900;2023-02-01T11:00:27;9.85;;;2.40;;
20095;SDS011;10207;50.942;6.900;2023-02-01T11:02:54;16.15;;;2.67;;
20095;SDS011;10207;50.942;6.900;2023-02-01T11:05:20;12.57;;;2.53;;
20095;SDS011;10207;50.942;6.900;2023-02-01T11:07:49;8.02;;;2.20;;
20095;SDS011;10207;50.942;6.900;2023-02-01T11:10:34;16.40;;;2.50;;
20095;SDS011;10207;50.942;6.900;2023-02-01T11:13:02;16.73;;;3.03;;
20095;SDS011;10207;50.942;6.900;2023-02-01T11:15:28;21.38;;;3.47;;
20095;SDS011;10207;50.942;6.900;2023-02-01T11:17:54;10.35;;;2.90;;
20095;SDS011;10207;50.942;6.900;2023-02-01T11:22:54;16.45;;;3.10;;
20095;SDS011;10207;50.942;6.900;2023-02-01T11:25:21;16.30;;;2.75;;
20095;SDS011;10207;50.942;6.900;2023-02-01T11:27:48;14.43;;;3.17;;
20095;SDS011;10207;50.942;6.900;2023-02-01T11:30:18;8.93;;;2.58;;
20095;SDS011;10207;50.942;6.900;2023-02-01T11:32:46;9.15;;;2.72;;
20095;SDS011;10207;50.942;6.900;2023-02-01T11:35:14;11.35;;;2.40;;
20095;SDS011;10207;50.942;6.900;2023-02-01T11:37:41;9.82;;;2.55;;
20095;SDS011;10207;50.942;6.900;2023-02-01T11:43:26;7.65;;;2.50;;
20095;SDS011;10207;50.942;6.900;2023-02-01T11:45:32;13.02;;;2.22;;
20095;SDS011;10207;50.942;6.900;2023-02-01T11:48:07;12.30;;;2.75;;
20095;SDS011;10207;50.942;6.900;2023-02-01T12:14:01;12.32;;;3.05;;
20095;SDS011;10207;50.942;6.900;2023-02-01T12:16:56;11.88;;;2.00;;
20095;SDS011;10207;50.942;6.900;2023-02-01T12:22:12;11.23;;;2.50;;
20095;SDS011;10207;50.942;6.900;2023-02-01T12:27:50;13.90;;;2.70;;
20095;SDS011;10207;50.942;6.900;2023-02-01T12:45:39;10.13;;;2.30;;
20095;SDS011;10207;50.942;6.900;2023-02-01T12:53:08;10.00;;;2.28;;
20095;SDS011;10207;50.942;6.900;2023-02-01T12:55:35;11.57;;;2.42;;
20095;SDS011;10207;50.942;6.900;2023-02-01T12:58:12;14.02;;;2.63;;
20095;SDS011;10207;50.942;6.900;2023-02-01T13:00:40;13.25;;;2.58;;
20095;SDS011;10207;50.942;6.900;2023-02-01T13:05:55;12.65;;;2.30;;
20095;SDS011;10207;50.942;6.900;2023-02-01T13:08:23;15.55;;;2.25;;
20095;SDS011;10207;50.942;6.900;2023-02-01T13:10:52;14.20;;;2.20;;
20095;SDS011;10207;50.942;6.900;2023-02-01T13:13:22;10.35;;;2.80;;
20095;SDS011;10207;50.942;6.900;2023-02-01T13:15:55;8.65;;;2.58;;
20095;SDS011;10207;50.942;6.900;2023-02-01T13:18:23;8.30;;;2.08;;
20095;SDS011;10207;50.942;6.900;2023-02-01T13:23:39;16.80;;;2.33;;
20095;SDS011;10207;50.942;6.900;2023-02-01T13:26:04;12.30;;;2.35;;
20095;SDS011;10207;50.942;6.900;2023-02-01T13:31:00;7.35;;;2.15;;
20095;SDS011;10207;50.942;6.900;2023-02-01T13:33:35;9.77;;;2.33;;
20095;SDS011;10207;50.942;6.900;2023-02-01T13:44:11;13.45;;;2.60;;
20095;SDS011;10207;50.942;6.900;2023-02-01T13:46:38;15.43;;;2.50;;
20095;SDS011;10207;50.942;6.900;2023-02-01T13:49:05;11.90;;;2.53;;
20095;SDS011;10207;50.942;6.900;2023-02-01T13:51:44;11.45;;;2.47;;
20095;SDS011;10207;50.942;6.900;2023-02-01T13:54:31;15.57;;;2.45;;
20095;SDS011;10207;50.942;6.900;2023-02-01T13:57:00;10.40;;;2.83;;
20095;SDS011;10207;50.942;6.900;2023-02-01T14:04:50;15.38;;;2.72;;
20095;SDS011;10207;50.942;6.900;2023-02-01T14:07:20;12.88;;;2.40;;
20095;SDS011;10207;50.942;6.900;2023-02-01T14:09:47;14.20;;;2.15;;
20095;SDS011;10207;50.942;6.900;2023-02-01T14:17:44;13.57;;;3.70;;
20095;SDS011;10207;50.942;6.900;2023-02-01T14:23:04;12.00;;;2.63;;
20095;SDS011;10207;50.942;6.900;2023-02-01T14:25:33;8.90;;;1.75;;
20095;SDS011;10207;50.942;6.900;2023-02-01T14:27:59;9.18;;;1.83;;
20095;SDS011;10207;50.942;6.900;2023-02-01T14:30:26;13.05;;;2.60;;
20095;SDS011;10207;50.942;6.900;2023-02-01T14:32:52;12.93;;;2.20;;
20095;SDS011;10207;50.942;6.900;2023-02-01T14:35:19;7.72;;;2.17;;
20095;SDS011;10207;50.942;6.900;2023-02-01T14:37:46;11.40;;;2.40;;
20095;SDS011;10207;50.942;6.900;2023-02-01T14:40:17;20.88;;;4.78;;
20095;SDS011;10207;50.942;6.900;2023-02-01T14:42:45;11.95;;;2.10;;
20095;SDS011;10207;50.942;6.900;2023-02-01T14:47:52;9.32;;;2.28;;
20095;SDS011;10207;50.942;6.900;2023-02-01T15:00:49;8.52;;;2.15;;
20095;SDS011;10207;50.942;6.900;2023-02-01T15:05:41;10.55;;;1.92;;
20095;SDS011;10207;50.942;6.900;2023-02-01T15:08:13;10.95;;;2.38;;
20095;SDS011;10207;50.942;6.900;2023-02-01T15:10:42;8.60;;;1.92;;
20095;SDS011;10207;50.942;6.900;2023-02-01T15:13:17;9.10;;;1.88;;
20095;SDS011;10207;50.942;6.900;2023-02-01T15:15:44;10.13;;;1.83;;
20095;SDS011;10207;50.942;6.900;2023-02-01T15:18:14;13.30;;;2.45;;
20095;SDS011;10207;50.942;6.900;2023-02-01T15:20:41;8.95;;;1.88;;
20095;SDS011;10207;50.942;6.900;2023-02-01T15:23:15;9.75;;;2.00;;
20095;SDS011;10207;50.942;6.900;2023-02-01T15:25:44;17.15;;;3.47;;
20095;SDS011;10207;50.942;6.900;2023-02-01T15:28:12;14.27;;;2.20;;
20095;SDS011;10207;50.942;6.900;2023-02-01T15:30:38;9.10;;;2.13;;
20095;SDS011;10207;50.942;6.900;2023-02-01T15:35:41;11.02;;;2.15;;
20095;SDS011;10207;50.942;6.900;2023-02-01T15:43:34;6.20;;;1.77;;
20095;SDS011;10207;50.942;6.900;2023-02-01T15:46:02;11.77;;;1.95;;
20095;SDS011;10207;50.942;6.900;2023-02-01T15:48:32;10.68;;;1.90;;
20095;SDS011;10207;50.942;6.900;2023-02-01T15:51:00;10.82;;;2.03;;
20095;SDS011;10207;50.942;6.900;2023-02-01T15:53:26;12.60;;;2.10;;
20095;SDS011;10207;50.942;6.900;2023-02-01T15:55:58;7.80;;;1.58;;
20095;SDS011;10207;50.942;6.900;2023-02-01T15:58:25;11.95;;;2.20;;
20095;SDS011;10207;50.942;6.900;2023-02-01T16:00:55;13.35;;;1.90;;
20095;SDS011;10207;50.942;6.900;2023-02-01T16:03:26;9.10;;;2.10;;
20095;SDS011;10207;50.942;6.900;2023-02-01T16:05:56;7.72;;;1.83;;
20095;SDS011;10207;50.942;6.900;2023-02-01T16:08:24;9.75;;;2.60;;
20095;SDS011;10207;50.942;6.900;2023-02-01T16:10:52;10.27;;;2.60;;
20095;SDS011;10207;50.942;6.900;2023-02-01T16:13:19;12.60;;;2.63;;
20095;SDS011;10207;50.942;6.900;2023-02-01T16:15:46;17.80;;;2.33;;
20095;SDS011;10207;50.942;6.900;2023-02-01T16:18:12;9.60;;;2.55;;
20095;SDS011;10207;50.942;6.900;2023-02-01T16:20:40;12.70;;;1.90;;
20095;SDS011;10207;50.942;6.900;2023-02-01T16:23:07;9.13;;;1.60;;
20095;SDS011;10207;50.942;6.900;2023-02-01T16:25:35;16.52;;;3.20;;
20095;SDS011;10207;50.942;6.900;2023-02-01T16:28:01;11.40;;;1.67;;
20095;SDS011;10207;50.942;6.900;2023-02-01T16:30:27;7.70;;;2.00;;
20095;SDS011;10207;50.942;6.900;2023-02-01T16:32:53;12.60;;;2.45;;
20095;SDS011;10207;50.942;6.900;2023-02-01T16:35:22;11.60;;;2.33;;
20095;SDS011;10207;50.942;6.900;2023-02-01T16:37:49;10.60;;;2.45;;
20095;SDS011;10207;50.942;6.900;2023-02-01T16:40:15;19.60;;;2.55;;
20095;SDS011;10207;50.942;6.900;2023-02-01T16:42:42;12.65;;;2.47;;
20095;SDS011;10207;50.942;6.900;2023-02-01T16:45:08;9.88;;;2.30;;
20095;SDS011;10207;50.942;6.900;2023-02-01T16:47:35;14.03;;;3.10;;
20095;SDS011;10207;50.942;6.900;2023-02-01T16:50:02;14.07;;;2.45;;
20095;SDS011;10207;50.942;6.900;2023-02-01T16:52:28;10.60;;;3.10;;
20095;SDS011;10207;50.942;6.900;2023-02-01T16:54:54;13.90;;;2.67;;
20095;SDS011;10207;50.942;6.900;2023-02-01T16:57:20;12.52;;;3.08;;
20095;SDS011;10207;50.942;6.900;2023-02-01T16:59:49;12.77;;;3.80;;
20095;SDS011;10207;50.942;6.900;2023-02-01T17:02:16;12.68;;;2.67;;
20095;SDS011;10207;50.942;6.900;2023-02-01T17:04:42;11.55;;;2.55;;